Time;durP1;ratioP1;P1;durP2;ratioP2;P2;SDS_P1;SDS_P2;PMS_P1;PMS_P2;Temp;Humidity;BMP_temperature;BMP_pressure;BME280_temperature;BME280_humidity;BME280_pressure;Samples;Min_cycle;Max_cycle;Signal;HPM_P1;HPM_P2
2021/10/25 00:01:52;;;;;;;9.10;8.00;;;2.40;91.50;;;0.84;95.95;98618.50;5047825;28;20538;-71
2021/10/25 00:04:19;;;;;;;12.23;8.80;;;2.40;92.00;;;0.86;96.09;98610.34;5047467;28;20509;-72
2021/10/25 00:06:46;;;;;;;11.93;8.60;;;2.40;91.80;;;0.88;96.23;98611.06;5051890;28;20976;-71
2021/10/25 00:09:14;;;;;;;12.50;9.43;;;2.40;92.10;;;0.94;95.42;98609.66;5049383;28;20549;-72
2021/10/25 00:11:42;;;;;;;12.80;9.20;;;2.40;91.70;;;0.78;95.84;98600.41;5047073;28;20540;-71
2021/10/25 00:14:09;;;;;;;13.60;9.10;;;2.40;91.60;;;0.82;96.03;98608.97;5048989;28;20464;-71
2021/10/25 00:16:36;;;;;;;9.93;8.20;;;2.30;91.60;;;0.83;95.97;98606.19;5044548;28;20474;-71
2021/10/25 00:19:04;;;;;;;14.33;9.27;;;2.40;91.40;;;0.82;96.06;98607.13;5046229;28;20465;-70
2021/10/25 00:21:31;;;;;;;11.63;9.40;;;2.30;91.90;;;0.69;96.20;98617.22;5041952;28;20537;-71
2021/10/25 00:23:58;;;;;;;11.87;8.90;;;2.30;91.70;;;0.64;97.20;98606.13;5052695;28;20479;-72
2021/10/25 00:26:26;;;;;;;11.57;8.60;;;2.10;93.40;;;0.64;97.29;98612.31;5053781;28;21210;-71
2021/10/25 00:28:53;;;;;;;9.60;7.63;;;2.10;94.20;;;0.47;97.40;98611.13;5044231;28;20481;-73
2021/10/25 00:31:20;;;;;;;10.40;8.13;;;2.00;93.00;;;0.26;98.48;98608.56;5052379;28;20922;-71
2021/10/25 00:33:47;;;;;;;12.53;9.00;;;1.80;93.30;;;0.18;98.88;98611.06;5046212;28;20464;-71
2021/10/25 00:36:15;;;;;;;10.60;8.73;;;1.70;94.30;;;0.17;99.61;98604.88;5049602;28;20478;-72
2021/10/25 00:38:42;;;;;;;11.43;8.77;;;1.70;96.20;;;0.27;99.52;98608.44;5045708;28;20552;-71
2021/10/25 00:41:09;;;;;;;10.67;8.30;;;1.70;97.30;;;0.35;98.62;98606.91;5050064;28;20469;-71
2021/10/25 00:43:38;;;;;;;10.63;8.97;;;1.70;97.50;;;0.21;99.31;98608.13;5052025;28;20472;-73
2021/10/25 00:46:06;;;;;;;11.60;8.83;;;1.70;96.20;;;0.23;99.28;98592.88;5050519;28;20547;-72
2021/10/25 00:48:33;;;;;;;14.00;8.87;;;1.70;98.20;;;0.40;98.76;98600.19;5047784;28;20467;-72
2021/10/25 00:51:00;;;;;;;12.43;9.33;;;1.80;97.30;;;0.27;98.92;98600.44;5052965;28;20546;-72
2021/10/25 00:53:28;;;;;;;13.70;9.03;;;1.70;95.70;;;0.55;98.49;98598.00;5052200;28;20564;-72
2021/10/25 00:55:55;;;;;;;10.37;9.07;;;1.90;97.40;;;0.44;98.23;98600.78;5054094;28;20499;-71
2021/10/25 00:58:22;;;;;;;12.13;9.80;;;1.90;94.90;;;0.54;98.01;98601.66;5054247;28;20460;-71
2021/10/25 01:00:51;;;;;;;15.13;9.30;;;2.00;95.10;;;0.51;97.14;98601.91;5040411;28;20463;-73
2021/10/25 01:03:19;;;;;;;10.00;8.90;;;2.00;93.60;;;0.39;97.27;98605.66;5061598;28;20463;-72
2021/10/25 01:05:46;;;;;;;13.20;8.73;;;1.90;93.00;;;0.31;97.89;98606.34;5048658;28;20465;-71
2021/10/25 01:08:13;;;;;;;12.60;9.70;;;1.80;93.00;;;0.11;99.03;98600.13;5049241;28;20492;-74
2021/10/25 01:10:41;;;;;;;13.30;9.50;;;1.70;93.40;;;0.32;99.36;98594.75;5051258;28;20638;-71
2021/10/25 01:13:10;;;;;;;11.53;9.00;;;1.70;96.40;;;0.17;98.71;98591.59;5049077;28;20546;-71
2021/10/25 01:15:37;;;;;;;12.17;9.30;;;1.70;94.60;;;0.07;99.15;98594.22;5046528;28;20504;-71
2021/10/25 01:18:06;;;;;;;12.07;9.47;;;1.60;94.90;;;0.08;99.32;98589.75;5048785;28;20510;-71
2021/10/25 01:20:34;;;;;;;10.87;9.00;;;1.60;96.20;;;0.12;99.11;98592.00;5048791;28;20461;-71
2021/10/25 01:23:01;;;;;;;10.30;9.20;;;1.60;97.00;;;0.11;98.96;98594.81;5049568;28;20496;-70
2021/10/25 01:25:30;;;;;;;14.30;9.17;;;1.60;96.00;;;0.03;99.33;98591.97;5050511;28;20569;-71
2021/10/25 01:27:58;;;;;;;10.80;9.00;;;1.50;95.90;;;-0.36;100.00;98539.50;5049115;28;20466;-70
2021/10/25 01:30:25;;;;;;;12.77;10.37;;;1.50;96.40;;;-0.12;100.00;98592.31;5049130;28;20489;-71
2021/10/25 01:32:52;;;;;;;16.33;9.60;;;1.40;97.30;;;0.08;99.88;98595.91;5049409;28;20453;-73
2021/10/25 01:35:19;;;;;;;11.23;9.50;;;1.50;98.10;;;0.14;99.37;98605.16;5048323;28;20578;-71
2021/10/25 01:37:48;;;;;;;12.37;9.10;;;1.50;98.20;;;0.06;99.54;98591.69;5048363;28;20492;-72
2021/10/25 01:40:15;;;;;;;13.43;9.10;;;1.50;97.30;;;0.15;99.13;98590.91;5047958;28;20907;-72
2021/10/25 01:42:43;;;;;;;13.40;9.90;;;1.60;97.10;;;0.09;98.85;98602.91;5044236;28;20551;-71
2021/10/25 01:45:13;;;;;;;13.30;10.37;;;1.60;95.50;;;0.15;98.74;98604.19;5045200;28;20515;-72
2021/10/25 01:47:40;;;;;;;10.67;8.30;;;1.60;95.50;;;0.13;98.57;98598.16;5049963;28;20455;-71
2021/10/25 01:50:08;;;;;;;11.83;9.60;;;1.60;95.00;;;0.17;98.61;98599.56;5047401;28;20482;-71
2021/10/25 01:52:36;;;;;;;15.17;9.47;;;1.60;95.80;;;-0.02;99.28;98593.22;5044168;28;20523;-72
2021/10/25 01:55:06;;;;;;;13.40;9.97;;;1.50;95.00;;;0.06;99.72;98597.88;5043999;28;21040;-70
2021/10/25 01:57:33;;;;;;;12.70;9.90;;;1.50;95.90;;;0.04;99.42;98593.66;5050248;28;20970;-71
2021/10/25 02:00:00;;;;;;;13.27;9.67;;;1.50;97.20;;;0.14;99.28;98595.34;5041562;28;20559;-71
2021/10/25 02:02:28;;;;;;;12.80;8.90;;;1.60;97.60;;;-0.04;100.00;98592.50;5044976;28;20482;-71
2021/10/25 02:04:55;;;;;;;11.70;8.80;;;1.50;96.10;;;-0.05;99.78;98593.50;5046507;28;20488;-71
2021/10/25 02:07:22;;;;;;;12.40;10.10;;;1.40;96.60;;;-0.02;99.56;98590.56;5064669;28;21285;-71
2021/10/25 02:09:48;;;;;;;9.87;8.70;;;1.50;96.80;;;-0.04;99.42;98565.09;5042713;28;20841;-73
2021/10/25 02:12:17;;;;;;;13.57;9.20;;;1.40;97.90;;;0.05;98.74;98590.00;5049423;28;21031;-72
2021/10/25 02:14:44;;;;;;;10.67;9.30;;;1.50;95.80;;;-0.04;99.26;98581.88;5039420;28;20473;-72
2021/10/25 02:17:11;;;;;;;13.83;9.60;;;1.50;95.90;;;-0.03;99.19;98580.91;5043721;28;20503;-74
2021/10/25 02:19:39;;;;;;;10.73;8.63;;;1.40;96.50;;;-0.02;99.16;98590.56;5046450;28;20962;-72
2021/10/25 02:22:06;;;;;;;11.87;8.60;;;1.40;96.10;;;0.09;98.71;98565.69;5049837;28;20481;-73
2021/10/25 02:24:34;;;;;;;10.70;8.83;;;1.50;96.30;;;-0.07;98.85;98576.84;5049817;28;20461;-71
2021/10/25 02:27:03;;;;;;;13.37;10.37;;;1.50;94.60;;;-0.09;99.18;98578.78;5044916;28;20998;-70
2021/10/25 02:29:35;;;;;;;13.63;10.00;;;1.50;95.60;;;-0.15;99.55;98574.00;5047244;28;20500;-70
2021/10/25 02:32:02;;;;;;;10.67;8.70;;;1.40;95.40;;;-0.16;99.69;98572.31;5050864;28;20457;-71
2021/10/25 02:34:31;;;;;;;17.50;9.63;;;1.30;96.70;;;-0.43;99.23;98528.59;5049869;28;20484;-71
2021/10/25 02:36:58;;;;;;;11.73;9.00;;;1.30;97.60;;;-0.06;99.11;98567.03;5061691;28;21085;-72
2021/10/25 02:39:27;;;;;;;15.20;9.57;;;1.40;96.80;;;-0.04;99.11;98571.25;5048801;28;20535;-71
2021/10/25 02:41:55;;;;;;;17.00;10.10;;;1.40;95.50;;;-0.11;98.95;98564.78;5045495;28;20464;-71
2021/10/25 02:44:22;;;;;;;11.63;8.40;;;1.40;95.00;;;-0.29;99.24;98554.78;5044813;28;20467;-71
2021/10/25 02:46:51;;;;;;;12.33;8.97;;;1.30;94.60;;;-0.29;99.15;98551.31;5045858;28;20544;-71
2021/10/25 02:49:19;;;;;;;12.27;8.97;;;1.20;95.90;;;-0.15;98.87;98558.06;5044977;28;20685;-70
2021/10/25 02:51:46;;;;;;;10.07;9.00;;;1.30;96.80;;;-0.17;98.68;98552.03;5065747;28;21012;-71
2021/10/25 02:54:13;;;;;;;14.37;9.00;;;1.40;95.30;;;-0.15;98.68;98552.75;5045583;28;20549;-71
2021/10/25 02:56:40;;;;;;;14.97;10.10;;;1.40;94.70;;;-0.15;98.32;98553.59;5049174;28;20504;-71
2021/10/25 02:59:09;;;;;;;12.80;9.53;;;1.40;94.80;;;-0.53;98.85;98517.91;5050292;28;21143;-71
2021/10/25 03:01:36;;;;;;;14.20;9.20;;;1.30;93.90;;;-0.57;99.72;98554.50;5048344;28;20466;-71
2021/10/25 03:04:08;;;;;;;14.33;8.83;;;1.10;94.60;;;-0.66;100.00;98550.00;5051537;28;20490;-71
2021/10/25 03:06:35;;;;;;;10.50;8.63;;;0.90;96.80;;;-0.47;100.00;98554.53;5048205;28;20980;-71
2021/10/25 03:09:03;;;;;;;13.90;11.03;;;1.00;99.00;;;-0.57;100.00;98565.13;5047533;28;20510;-72
2021/10/25 03:11:30;;;;;;;14.90;9.40;;;1.00;98.30;;;-0.57;100.00;98559.81;5049705;28;20480;-71
2021/10/25 03:13:58;;;;;;;12.57;9.30;;;0.90;99.90;;;-0.38;100.00;98563.56;5067117;28;20463;-71
2021/10/25 03:16:26;;;;;;;14.53;12.40;;;1.10;99.90;;;-0.41;100.00;98562.97;5051077;28;21084;-72
2021/10/25 03:18:53;;;;;;;13.93;9.83;;;1.10;99.30;;;-0.27;99.72;98561.78;5059910;28;20509;-71
2021/10/25 03:21:22;;;;;;;13.83;9.90;;;1.20;99.00;;;-0.21;99.13;98559.44;5049447;28;20518;-72
2021/10/25 03:23:50;;;;;;;13.50;9.73;;;1.30;97.00;;;-0.36;99.00;98535.06;5046383;28;20491;-71
2021/10/25 03:26:18;;;;;;;11.27;9.03;;;1.30;95.60;;;-0.17;98.70;98566.16;5048280;28;20833;-72
2021/10/25 03:28:46;;;;;;;12.17;9.20;;;1.30;94.90;;;-0.09;98.93;98552.19;5044966;28;20560;-71
2021/10/25 03:31:13;;;;;;;12.13;9.80;;;1.40;94.60;;;-0.08;98.53;98553.88;5046275;28;20460;-72
2021/10/25 03:33:40;;;;;;;15.90;10.17;;;1.40;94.10;;;-0.08;98.14;98556.53;5048206;28;21174;-71
2021/10/25 03:36:08;;;;;;;12.90;9.90;;;1.40;94.10;;;-0.23;99.29;98557.88;5053659;28;20917;-71
2021/10/25 03:38:39;;;;;;;12.63;9.20;;;1.40;94.10;;;-0.24;99.82;98553.53;5052423;28;20964;-72
2021/10/25 03:41:11;;;;;;;15.17;10.40;;;1.30;95.40;;;-0.09;99.86;98557.50;5047037;28;20506;-71
2021/10/25 03:43:44;;;;;;;13.30;10.43;;;1.40;97.20;;;-0.14;99.29;98549.13;5063154;28;20552;-71
2021/10/25 03:46:17;;;;;;;11.20;9.57;;;1.40;96.00;;;0.02;99.63;98558.41;5052160;28;20468;-72
2021/10/25 03:48:49;;;;;;;12.03;10.20;;;1.50;97.00;;;-0.14;99.82;98551.78;5052896;28;20454;-71
2021/10/25 03:51:17;;;;;;;12.07;9.23;;;1.40;95.80;;;-0.11;99.98;98548.84;5048253;28;20467;-71
2021/10/25 03:53:53;;;;;;;12.10;10.07;;;1.50;96.20;;;-0.42;100.00;98493.09;5054409;28;20990;-71
2021/10/25 03:56:31;;;;;;;18.43;10.10;;;1.50;96.80;;;-0.12;100.00;98563.09;5055318;28;20473;-71
2021/10/25 04:27:00;;;;;;;13.43;9.73;;;1.40;95.30;;;-0.20;99.08;98534.56;5050863;28;20451;-71
2021/10/25 04:29:29;;;;;;;10.87;9.13;;;1.30;95.50;;;-0.26;99.53;98532.44;5059280;28;20441;-71
2021/10/25 04:31:57;;;;;;;16.63;10.60;;;1.30;94.50;;;-0.29;99.39;98538.03;5044384;28;20488;-71
2021/10/25 04:34:25;;;;;;;20.17;11.00;;;1.30;94.60;;;-0.25;99.39;98535.91;5062514;28;21058;-71
2021/10/25 04:36:54;;;;;;;12.00;10.10;;;1.30;95.30;;;-0.39;99.37;98514.06;5036865;28;20885;-71
2021/10/25 04:39:24;;;;;;;12.73;10.53;;;1.30;95.80;;;-0.32;99.35;98525.84;5049634;28;20461;-71
2021/10/25 04:41:52;;;;;;;13.80;10.70;;;1.30;95.70;;;-0.41;100.00;98537.25;5050639;28;20480;-71
2021/10/25 04:44:19;;;;;;;11.83;10.23;;;1.20;95.10;;;-0.27;100.00;98535.22;5047600;28;20867;-71
2021/10/25 04:46:46;;;;;;;12.67;10.90;;;1.20;97.00;;;-0.24;99.93;98527.84;5047489;28;20490;-71
2021/10/25 04:49:13;;;;;;;14.87;11.40;;;1.30;97.80;;;-0.27;99.03;98516.63;5048986;28;20522;-72
2021/10/25 04:51:40;;;;;;;13.67;11.40;;;1.30;95.10;;;-0.36;99.13;98519.13;5068245;28;20484;-72
2021/10/25 04:54:07;;;;;;;18.37;12.20;;;1.30;94.60;;;-0.23;99.20;98528.66;5046953;28;20545;-73
2021/10/25 04:56:34;;;;;;;16.40;12.00;;;1.30;94.40;;;-0.33;99.49;98524.16;5051568;28;20839;-73
2021/10/25 04:59:02;;;;;;;17.10;11.60;;;1.20;94.80;;;-0.38;99.31;98536.16;5045140;28;20552;-73
2021/10/25 05:01:29;;;;;;;20.17;11.67;;;1.20;94.80;;;-0.20;100.00;98536.38;5044044;28;21229;-72
2021/10/25 05:03:56;;;;;;;16.50;11.60;;;1.20;98.90;;;-0.05;100.00;98536.84;5052954;28;20460;-71
2021/10/25 05:06:23;;;;;;;16.43;10.30;;;1.40;99.90;;;-0.33;100.00;98496.75;5053177;28;20481;-72
2021/10/25 05:08:50;;;;;;;12.83;10.43;;;1.40;99.00;;;0.30;100.00;98546.16;5048401;28;20464;-73
2021/10/25 05:11:17;;;;;;;14.87;9.90;;;1.70;99.90;;;0.08;99.27;98539.28;5047377;28;20460;-70
2021/10/25 05:13:44;;;;;;;12.20;10.50;;;1.60;95.70;;;-0.07;99.00;98544.97;5044266;28;20488;-70
2021/10/25 05:16:12;;;;;;;12.40;10.73;;;1.60;94.10;;;-0.03;98.28;98546.38;5044476;28;20541;-70
2021/10/25 05:18:39;;;;;;;19.73;10.67;;;1.50;94.30;;;-0.08;98.41;98529.97;5048508;28;20524;-70
2021/10/25 05:21:07;;;;;;;13.77;10.90;;;1.50;93.80;;;-0.08;98.15;98540.59;5046689;28;20498;-69
2021/10/25 05:23:34;;;;;;;13.93;11.00;;;1.50;93.40;;;-0.04;98.46;98542.03;5052004;28;20807;-69
2021/10/25 05:26:01;;;;;;;13.10;11.00;;;1.50;94.00;;;-0.20;98.39;98531.06;5040309;28;20461;-69
2021/10/25 05:28:28;;;;;;;13.57;10.83;;;1.40;93.60;;;-0.18;98.52;98535.25;5039025;28;20469;-68
2021/10/25 05:30:55;;;;;;;20.63;11.80;;;1.40;93.80;;;0.09;99.42;98548.94;5041495;28;20476;-68
2021/10/25 05:33:24;;;;;;;16.10;11.57;;;1.40;97.90;;;-0.16;99.41;98529.81;5046304;28;20532;-69
2021/10/25 05:35:51;;;;;;;19.07;11.43;;;1.50;95.10;;;0.13;99.39;98542.34;5039553;28;20512;-71
2021/10/25 05:38:18;;;;;;;13.13;10.80;;;1.60;97.30;;;0.07;99.01;98540.22;5044699;28;20465;-71
2021/10/25 05:40:45;;;;;;;16.23;10.90;;;1.60;95.30;;;0.04;99.58;98541.34;5049973;28;20491;-70
2021/10/25 05:43:13;;;;;;;14.80;11.70;;;1.50;95.60;;;0.15;99.87;98537.75;5041825;28;20814;-70
2021/10/25 05:45:40;;;;;;;16.67;11.50;;;1.60;96.60;;;0.42;99.77;98544.25;5047717;28;20498;-69
2021/10/25 05:48:07;;;;;;;13.00;11.40;;;1.80;98.10;;;0.47;99.78;98543.84;5045635;28;20556;-70
2021/10/25 05:50:36;;;;;;;17.63;11.57;;;1.90;97.50;;;0.30;99.35;98545.34;5049379;28;20457;-72
2021/10/25 05:53:03;;;;;;;20.63;12.00;;;1.80;95.60;;;0.27;99.25;98549.94;5047203;28;20484;-74
2021/10/25 05:55:31;;;;;;;14.70;11.27;;;1.80;95.30;;;0.22;98.83;98541.53;5050033;28;20499;-74
2021/10/25 05:57:59;;;;;;;19.20;12.60;;;1.80;95.00;;;0.18;98.77;98532.16;5045217;28;20811;-71
2021/10/25 06:00:28;;;;;;;16.83;11.70;;;1.70;95.30;;;0.07;99.02;98538.44;5048245;28;20968;-72
2021/10/25 06:02:56;;;;;;;13.60;10.87;;;1.70;94.50;;;0.23;98.21;98548.56;5046087;28;20458;-72
2021/10/25 06:05:25;;;;;;;17.10;12.07;;;1.70;94.60;;;0.11;98.04;98550.44;5040806;28;20549;-72
2021/10/25 06:07:54;;;;;;;16.23;12.50;;;1.80;93.70;;;0.13;98.33;98545.00;5043504;28;21172;-72
2021/10/25 06:10:26;;;;;;;14.90;10.80;;;1.70;93.80;;;0.11;98.79;98531.84;5042413;28;20543;-72
2021/10/25 06:12:56;;;;;;;15.20;12.50;;;1.70;94.00;;;0.05;99.33;98540.38;5050142;28;20463;-72
2021/10/25 06:15:24;;;;;;;16.17;11.70;;;1.60;94.40;;;0.09;99.39;98540.97;5043811;28;20464;-72
2021/10/25 06:17:53;;;;;;;15.47;13.00;;;1.60;95.20;;;0.07;99.22;98541.09;5044663;28;20856;-73
2021/10/25 06:20:21;;;;;;;14.30;11.00;;;1.60;94.80;;;0.04;99.29;98530.72;5043576;28;20469;-73
2021/10/25 06:22:48;;;;;;;16.17;12.10;;;1.60;94.80;;;0.13;99.15;98545.00;5041901;28;20533;-72
2021/10/25 06:25:20;;;;;;;12.90;11.47;;;1.60;95.40;;;0.12;98.78;98538.03;5047714;28;21035;-72
2021/10/25 06:27:47;;;;;;;16.67;10.63;;;1.70;94.80;;;0.20;99.00;98534.69;5047213;28;20466;-73
2021/10/25 06:30:16;;;;;;;21.53;12.00;;;1.70;94.80;;;0.08;99.20;98510.06;5037424;28;20611;-73
2021/10/25 06:32:46;;;;;;;14.93;12.87;;;1.80;94.90;;;0.15;98.49;98519.13;5044197;28;20506;-72
2021/10/25 06:35:15;;;;;;;17.03;12.63;;;1.80;94.20;;;0.35;98.90;98543.09;5041427;28;20440;-73
2021/10/25 06:37:56;;;;;;;21.50;12.17;;;1.90;94.90;;;0.79;99.24;98540.91;5041837;28;20545;-73
2021/10/25 06:40:27;;;;;;;16.73;11.63;;;2.10;98.60;;;0.51;97.75;98547.88;5059700;28;20546;-72
2021/10/25 06:42:55;;;;;;;18.03;11.87;;;2.10;93.80;;;0.51;98.47;98548.72;5040861;28;20452;-75
2021/10/25 06:45:24;;;;;;;14.77;11.87;;;2.10;94.00;;;0.46;98.34;98528.84;5044095;28;20554;-69
2021/10/25 06:47:53;;;;;;;15.00;11.93;;;2.10;93.80;;;0.70;98.02;98542.59;5039808;28;20473;-71
2021/10/25 06:50:23;;;;;;;19.07;11.50;;;2.20;94.00;;;0.68;97.64;98533.91;5040280;28;20494;-72
2021/10/25 06:52:50;;;;;;;16.50;11.97;;;2.30;93.50;;;0.82;97.64;98540.63;5045325;28;20523;-76
2021/10/25 06:55:18;;;;;;;14.20;12.00;;;2.40;93.30;;;1.00;96.98;98542.59;5047109;28;20534;-74
2021/10/25 06:57:47;;;;;;;14.00;11.60;;;2.50;92.60;;;0.98;96.84;98531.22;5046900;28;20478;-70
2021/10/25 07:00:14;;;;;;;18.23;12.67;;;2.60;91.90;;;1.05;96.43;98537.69;5037368;28;20805;-70
2021/10/25 07:02:41;;;;;;;18.27;12.87;;;2.60;91.80;;;1.19;96.55;98530.22;5042836;28;20451;-69
2021/10/25 07:05:10;;;;;;;18.77;12.53;;;2.70;91.80;;;1.16;96.12;98511.91;5038724;28;20546;-69
2021/10/25 07:07:38;;;;;;;15.90;12.57;;;2.80;91.20;;;1.22;96.04;98527.28;5042134;28;20452;-71
2021/10/25 07:10:08;;;;;;;16.27;11.17;;;2.80;91.20;;;1.41;95.35;98542.38;5041865;28;20455;-72
2021/10/25 07:12:35;;;;;;;19.83;11.47;;;2.90;91.00;;;1.65;94.48;98551.69;5042247;28;21018;-72
2021/10/25 07:15:05;;;;;;;15.20;11.67;;;3.10;90.90;;;1.68;93.46;98560.25;5042712;28;21013;-73
2021/10/25 07:17:37;;;;;;;13.03;11.60;;;3.20;89.80;;;1.74;93.51;98576.63;5047142;28;20527;-72
2021/10/25 08:07:08;;;;;;;16.23;12.43;;;5.20;81.30;;;4.11;84.71;98576.50;5047666;28;20597;-72
2021/10/25 08:09:49;;;;;;;14.80;11.37;;;5.50;79.60;;;3.71;85.62;98572.59;5055117;28;20845;-73
2021/10/25 08:12:19;;;;;;;13.67;11.40;;;5.30;78.60;;;3.69;85.74;98554.88;5047937;28;20461;-73
2021/10/25 08:14:50;;;;;;;15.03;12.23;;;5.20;79.40;;;4.01;86.34;98554.38;5048333;28;20955;-72
2021/10/25 08:17:21;;;;;;;14.33;12.83;;;5.30;80.70;;;4.18;84.44;98558.81;5048129;28;20456;-73
2021/10/25 08:19:50;;;;;;;15.47;11.93;;;5.50;78.70;;;4.37;84.85;98576.41;5049066;28;20474;-73
2021/10/25 08:22:18;;;;;;;13.13;11.70;;;5.70;79.60;;;4.45;83.92;98586.31;5047200;28;20520;-73
2021/10/25 08:24:47;;;;;;;17.43;13.20;;;5.80;78.20;;;4.45;82.70;98577.47;5043430;28;20468;-73
2021/10/25 08:27:16;;;;;;;14.33;12.33;;;5.90;77.20;;;4.32;83.50;98575.22;5061396;28;20463;-73
2021/10/25 08:29:46;;;;;;;17.47;13.30;;;5.70;77.00;;;4.31;84.34;98576.22;5046258;28;20563;-73
2021/10/25 08:32:28;;;;;;;14.37;12.07;;;5.70;77.70;;;4.38;83.42;98563.88;5042019;28;20468;-72
2021/10/25 08:35:18;;;;;;;14.17;12.77;;;5.70;77.80;;;4.26;84.13;98566.03;5047992;28;20455;-72
2021/10/25 08:40:37;;;;;;;20.23;13.50;;;5.80;77.30;;;4.88;81.87;98539.91;5070111;28;20470;-73
2021/10/25 08:43:05;;;;;;;17.97;11.90;;;6.10;77.40;;;5.04;82.36;98555.97;5069351;28;20486;-71
2021/10/25 08:45:33;;;;;;;16.13;13.27;;;6.30;76.90;;;4.79;81.70;98555.13;5071601;28;20487;-72
2021/10/25 08:48:03;;;;;;;14.63;13.10;;;6.20;76.10;;;4.87;82.26;98559.66;5060571;28;20804;-72
2021/10/25 08:50:35;;;;;;;15.90;14.30;;;6.30;76.50;;;4.89;82.25;98557.63;5046515;28;20443;-72
2021/10/25 08:53:05;;;;;;;16.17;12.20;;;6.20;76.10;;;4.81;81.89;98548.59;5044470;28;21189;-72
2021/10/25 08:55:32;;;;;;;15.03;12.73;;;6.30;76.00;;;4.68;82.92;98514.25;5046473;28;20460;-72
2021/10/25 08:58:00;;;;;;;14.10;12.10;;;6.30;76.70;;;4.94;82.07;98571.38;5047549;28;20508;-73
2021/10/25 09:00:39;;;;;;;15.67;13.30;;;6.30;76.30;;;5.08;81.64;98562.69;5044780;28;20459;-72
2021/10/25 09:03:07;;;;;;;19.80;14.60;;;6.40;75.90;;;5.38;80.63;98573.75;5046289;28;20892;-70
2021/10/25 09:05:36;;;;;;;16.33;12.90;;;6.70;75.50;;;5.73;78.99;98570.00;5046527;28;20539;-73
2021/10/25 09:08:07;;;;;;;15.43;13.80;;;6.90;74.80;;;5.85;78.73;98544.50;5048985;28;20544;-72
2021/10/25 09:10:38;;;;;;;18.37;13.47;;;7.10;74.10;;;6.01;78.35;98549.00;5048674;28;20471;-72
2021/10/25 09:13:09;;;;;;;19.00;12.70;;;7.30;73.70;;;6.36;76.34;98552.22;5047659;28;20475;-71
2021/10/25 09:15:39;;;;;;;16.00;12.57;;;7.60;72.40;;;6.40;76.91;98533.91;5063662;28;20808;-73
2021/10/25 09:18:13;;;;;;;21.63;13.97;;;7.80;71.80;;;6.74;75.43;98535.38;5042205;28;20552;-72
2021/10/25 09:20:47;;;;;;;18.93;13.73;;;7.90;71.10;;;7.01;74.84;98530.50;5046433;28;20987;-72
2021/10/25 09:23:17;;;;;;;14.47;12.70;;;8.30;70.70;;;6.93;75.25;98530.56;5048400;28;21066;-72
2021/10/25 09:25:51;;;;;;;17.60;13.63;;;8.40;70.20;;;6.94;75.71;98548.38;5041945;28;20495;-71
2021/10/25 09:28:24;;;;;;;15.13;12.50;;;8.30;70.30;;;6.80;75.90;98542.75;5045083;28;20501;-71
2021/10/25 09:30:54;;;;;;;16.60;12.23;;;8.30;69.80;;;6.95;75.46;98544.66;5048446;28;20483;-71
2021/10/25 09:33:22;;;;;;;15.60;12.70;;;8.30;70.10;;;7.02;75.24;98544.78;5057142;28;20788;-72
2021/10/25 09:36:02;;;;;;;15.93;13.13;;;8.40;69.80;;;7.30;75.35;98549.59;5038081;28;20468;-73
2021/10/25 09:38:37;;;;;;;13.53;11.93;;;8.50;70.00;;;7.34;75.12;98535.59;5047031;28;20472;-72
2021/10/25 09:49:51;;;;;;;15.63;12.43;;;9.50;67.70;;;8.67;70.37;98528.72;5046007;28;20459;-72
2021/10/25 09:52:29;;;;;;;15.17;12.30;;;9.80;67.70;;;8.78;68.84;98497.75;5049479;28;20500;-74
2021/10/25 09:55:03;;;;;;;13.20;12.00;;;10.10;64.80;;;8.35;70.59;98514.66;5057506;28;20533;-73
2021/10/25 09:57:39;;;;;;;13.87;11.90;;;9.90;65.60;;;8.43;70.36;98528.03;5064143;28;21279;-73
2021/10/25 10:00:09;;;;;;;15.47;12.50;;;9.70;65.70;;;8.55;69.85;98527.53;5048540;28;20990;-73
2021/10/25 10:02:38;;;;;;;13.67;11.57;;;9.90;65.60;;;8.60;69.78;98527.81;5048015;28;20480;-72
2021/10/25 10:05:10;;;;;;;13.80;11.20;;;9.90;65.70;;;9.03;68.84;98513.53;5046115;28;20465;-73
2021/10/25 10:07:40;;;;;;;13.50;11.70;;;10.00;64.60;;;9.10;68.81;98516.28;5048192;28;20465;-72
2021/10/25 10:10:11;;;;;;;12.93;11.53;;;10.30;64.20;;;9.11;69.09;98520.66;5045390;28;20500;-72
2021/10/25 10:12:42;;;;;;;12.80;11.60;;;10.30;64.00;;;9.22;68.33;98520.13;5041530;28;20460;-71
2021/10/25 10:15:11;;;;;;;14.15;12.75;;;10.30;63.70;;;9.05;68.39;98508.78;5047356;28;20455;-73
2021/10/25 10:17:44;;;;;;;17.23;13.10;;;10.40;63.20;;;8.71;69.06;98496.84;5047751;28;20459;-72
2021/10/25 10:20:15;;;;;;;14.80;11.70;;;10.20;63.30;;;8.91;69.58;98507.84;5048634;28;20467;-73
2021/10/25 10:22:51;;;;;;;14.50;11.60;;;10.10;64.00;;;9.24;69.94;98511.84;5046997;28;20458;-72
2021/10/25 10:25:30;;;;;;;12.53;11.33;;;10.30;65.00;;;9.28;68.22;98507.75;5051955;28;20441;-73
2021/10/25 10:28:08;;;;;;;13.70;10.97;;;10.40;63.60;;;9.16;68.40;98516.34;5053123;28;20453;-73
2021/10/25 10:30:53;;;;;;;13.10;10.87;;;10.40;63.70;;;9.14;69.00;98512.16;5049958;28;20461;-72
2021/10/25 10:33:33;;;;;;;13.47;12.03;;;10.30;63.50;;;8.90;71.25;98506.16;5066612;28;20511;-72
2021/10/25 10:36:18;;;;;;;13.33;11.73;;;10.20;64.60;;;9.01;70.07;98475.16;5042699;28;20523;-73
2021/10/25 10:38:52;;;;;;;12.93;11.73;;;10.20;64.30;;;9.09;69.78;98495.75;5041536;28;20493;-74
2021/10/25 10:41:23;;;;;;;15.77;11.73;;;10.30;63.90;;;9.07;70.21;98506.72;5053657;28;20452;-73
2021/10/25 10:44:03;;;;;;;12.73;11.43;;;10.30;63.90;;;8.79;71.02;98500.25;5049128;28;20949;-75
2021/10/25 10:46:48;;;;;;;12.90;11.30;;;10.10;64.10;;;9.10;70.29;98483.94;5049620;28;20804;-74
2021/10/25 10:49:29;;;;;;;13.27;11.27;;;10.30;64.60;;;9.33;70.96;98495.34;5049663;28;20467;-74
2021/10/25 10:55:02;;;;;;;12.20;11.00;;;10.60;64.30;;;9.29;69.14;98439.31;5046693;28;20460;-73
2021/10/25 11:00:29;;;;;;;12.83;11.53;;;10.90;64.20;;;9.74;68.14;98474.84;5037159;28;20456;-73
2021/10/25 11:02:58;;;;;;;13.27;10.90;;;11.00;63.40;;;9.97;67.10;98478.28;5040341;28;20461;-72
2021/10/25 11:05:31;;;;;;;12.30;11.03;;;11.10;63.20;;;10.41;66.06;98471.66;5041507;28;20465;-73
2021/10/25 11:08:10;;;;;;;11.77;10.67;;;11.30;62.90;;;10.42;66.31;98492.22;5039503;28;20456;-73
2021/10/25 11:10:40;;;;;;;11.63;10.50;;;11.60;62.50;;;10.52;65.27;98480.19;5038372;28;20458;-74
2021/10/25 11:13:13;;;;;;;18.43;11.03;;;11.70;61.90;;;10.63;64.87;98485.00;5037211;28;20488;-73
2021/10/25 11:15:55;;;;;;;12.83;11.27;;;11.80;61.30;;;10.49;65.12;98476.84;5046154;28;21069;-72
2021/10/25 11:18:28;;;;;;;11.60;10.50;;;11.70;61.70;;;10.41;65.29;98479.75;5033584;28;20480;-73
2021/10/25 11:21:18;;;;;;;11.03;9.90;;;11.80;61.10;;;10.31;65.84;98441.44;5038487;28;20479;-72
2021/10/25 11:23:50;;;;;;;11.67;10.30;;;11.70;61.50;;;10.04;66.69;98479.16;5053617;28;20665;-71
2021/10/25 11:26:21;;;;;;;11.57;10.37;;;11.40;61.30;;;10.34;65.42;98468.03;5040202;28;21167;-72
2021/10/25 11:29:05;;;;;;;12.60;10.90;;;11.50;61.40;;;10.31;65.98;98457.66;5039300;28;20476;-73
2021/10/25 11:31:35;;;;;;;11.40;10.30;;;11.60;61.70;;;10.51;65.68;98465.84;5045244;28;20544;-71
2021/10/25 11:34:03;;;;;;;12.00;10.80;;;11.60;61.50;;;10.71;65.11;98452.38;5040813;28;20518;-73
2021/10/25 11:36:32;;;;;;;10.20;9.10;;;11.80;60.80;;;11.16;62.90;98443.66;5040238;28;20457;-71
2021/10/25 11:39:08;;;;;;;11.27;10.23;;;12.10;60.70;;;11.26;62.91;98442.41;5039578;28;20472;-72
2021/10/25 11:41:47;;;;;;;10.27;9.37;;;12.40;60.10;;;10.97;62.55;98445.31;5040969;28;20552;-72
2021/10/25 11:44:15;;;;;;;10.90;9.80;;;12.30;59.40;;;11.04;63.07;98438.06;5038591;28;20469;-71
2021/10/25 11:46:44;;;;;;;10.70;9.70;;;12.20;59.40;;;11.02;63.12;98432.03;5041101;28;21102;-72
2021/10/25 11:49:11;;;;;;;9.67;8.67;;;12.20;59.70;;;11.05;62.83;98425.34;5049734;28;20480;-74
2021/10/25 11:51:48;;;;;;;10.43;9.33;;;12.20;59.40;;;11.10;62.63;98416.63;5044501;28;20465;-74
2021/10/25 11:54:16;;;;;;;11.17;9.40;;;12.30;59.20;;;10.89;63.33;98430.13;5041570;28;20467;-74
2021/10/25 11:56:50;;;;;;;11.47;10.20;;;12.10;59.40;;;10.63;64.22;98434.50;5046371;28;21011;-75
2021/10/25 11:59:18;;;;;;;14.73;11.07;;;11.90;59.40;;;10.66;63.57;98383.78;5038631;28;20483;-74
2021/10/25 12:01:46;;;;;;;14.53;10.00;;;12.00;59.50;;;11.00;63.40;98428.72;5043374;28;20507;-73